Time;durP1;ratioP1;P1;durP2;ratioP2;P2;SDS_P1;SDS_P2;PMS_P1;PMS_P2;Temp;Humidity;BMP_temperature;BMP_pressure;BME280_temperature;BME280_humidity;BME280_pressure;Samples;Min_cycle;Max_cycle;Signal;HPM_P1;HPM_P2
2022/06/01 00:00:10;;;;;;;0.88;0.10;;;22.80;34.90;;;;;;4963380;28;20046;-51
2022/06/01 00:02:39;;;;;;;0.25;0.10;;;22.80;35.00;;;;;;4948094;28;20149;-53
2022/06/01 00:05:07;;;;;;;0.20;0.10;;;22.70;35.00;;;;;;4964942;28;20049;-51
2022/06/01 00:07:36;;;;;;;0.35;0.10;;;22.70;35.10;;;;;;4966543;28;20424;-55
2022/06/01 00:10:03;;;;;;;0.10;0.00;;;22.70;35.20;;;;;;4966952;28;20042;-49
2022/06/01 00:12:31;;;;;;;1.00;0.10;;;22.70;35.10;;;;;;4966645;28;20380;-51
2022/06/01 00:14:58;;;;;;;1.50;0.10;;;22.60;35.20;;;;;;4967046;28;20049;-53
2022/06/01 00:17:25;;;;;;;0.52;0.10;;;22.60;35.30;;;;;;4968340;28;20043;-55
2022/06/01 00:19:52;;;;;;;0.38;0.10;;;22.60;35.40;;;;;;4966829;28;20038;-54
2022/06/01 00:22:19;;;;;;;2.55;0.20;;;22.60;35.40;;;;;;4949084;28;20067;-53
2022/06/01 00:24:48;;;;;;;0.28;0.10;;;22.60;35.40;;;;;;4966841;28;20047;-55
2022/06/01 00:27:17;;;;;;;0.73;0.22;;;22.60;35.40;;;;;;4965618;28;20133;-55
2022/06/01 00:29:45;;;;;;;0.20;0.00;;;22.60;35.50;;;;;;4966872;28;20047;-54
2022/06/01 00:32:14;;;;;;;0.55;0.10;;;22.50;35.50;;;;;;4968050;28;20051;-53
2022/06/01 00:34:43;;;;;;;0.40;0.30;;;22.50;35.60;;;;;;4967082;28;20051;-53
2022/06/01 00:37:10;;;;;;;1.75;0.10;;;22.50;35.60;;;;;;4948599;28;20042;-56
2022/06/01 00:39:38;;;;;;;2.92;0.28;;;22.50;35.70;;;;;;4966138;28;20068;-52
2022/06/01 00:42:17;;;;;;;2.38;0.10;;;22.40;35.70;;;;;;4966456;28;20522;-55
2022/06/01 00:44:44;;;;;;;0.47;0.10;;;22.50;35.80;;;;;;4969273;28;20046;-52
2022/06/01 00:47:12;;;;;;;0.65;0.10;;;22.40;35.90;;;;;;4949407;28;20054;-55
2022/06/01 00:49:42;;;;;;;0.25;0.10;;;22.50;36.00;;;;;;4966471;28;20129;-55
2022/06/01 00:52:10;;;;;;;1.02;0.45;;;22.40;36.00;;;;;;4964454;28;20125;-55
2022/06/01 00:54:37;;;;;;;2.55;0.10;;;22.40;36.00;;;;;;4970634;28;20070;-55
2022/06/01 00:57:09;;;;;;;0.10;0.03;;;22.40;36.10;;;;;;4966111;28;20050;-53
2022/06/01 00:59:41;;;;;;;1.45;0.13;;;22.30;36.10;;;;;;4966582;28;20437;-55
2022/06/01 01:02:09;;;;;;;2.83;0.10;;;22.30;36.10;;;;;;4966946;28;20712;-49
2022/06/01 01:04:40;;;;;;;1.02;0.10;;;22.30;36.20;;;;;;4966021;28;20047;-53
2022/06/01 01:07:12;;;;;;;1.35;0.03;;;22.30;36.30;;;;;;4965823;28;20858;-55
2022/06/01 01:09:40;;;;;;;0.10;0.00;;;22.30;37.00;;;;;;4965872;28;20057;-54
2022/06/01 01:12:10;;;;;;;0.10;0.00;;;22.20;36.30;;;;;;4966047;28;20046;-53
2022/06/01 01:14:43;;;;;;;0.32;0.03;;;22.20;36.30;;;;;;4966429;28;20069;-52
2022/06/01 01:17:11;;;;;;;1.20;0.10;;;22.20;36.40;;;;;;4966108;28;20043;-53
2022/06/01 01:19:47;;;;;;;0.13;0.10;;;22.20;36.50;;;;;;4965864;28;20043;-51
2022/06/01 01:22:36;;;;;;;0.32;0.22;;;22.20;36.60;;;;;;4948519;28;20042;-52
2022/06/01 01:25:19;;;;;;;1.45;0.10;;;22.20;36.60;;;;;;4960152;28;20059;-51
2022/06/01 01:27:47;;;;;;;0.45;0.20;;;22.20;36.70;;;;;;4964889;28;20817;-52
2022/06/01 01:30:27;;;;;;;0.60;0.10;;;22.10;36.80;;;;;;4965907;28;20046;-53
2022/06/01 01:32:54;;;;;;;0.10;0.10;;;22.10;36.80;;;;;;4965702;28;20034;-54
2022/06/01 01:35:21;;;;;;;0.43;0.10;;;22.10;36.90;;;;;;4966776;28;20595;-54
2022/06/01 01:37:51;;;;;;;0.10;0.10;;;22.10;36.90;;;;;;4964581;28;20043;-53
2022/06/01 01:40:19;;;;;;;1.40;0.08;;;22.00;36.90;;;;;;4965728;28;20538;-54
2022/06/01 01:42:48;;;;;;;0.32;0.20;;;22.00;37.00;;;;;;4965296;28;20110;-55
2022/06/01 01:45:24;;;;;;;2.28;0.10;;;21.90;37.10;;;;;;4965654;28;20049;-55
2022/06/01 01:47:51;;;;;;;;;;;21.90;37.20;;;;;;4965333;28;20488;-52
2022/06/01 01:50:18;;;;;;;0.15;0.10;;;21.80;37.20;;;;;;4967284;28;19926;-53
2022/06/01 01:52:46;;;;;;;0.40;0.10;;;21.80;37.50;;;;;;4965191;28;20043;-53
2022/06/01 01:55:22;;;;;;;0.17;0.10;;;21.80;37.50;;;;;;4965304;28;20046;-53
2022/06/01 01:57:57;;;;;;;1.08;0.35;;;21.80;37.50;;;;;;4947295;28;20685;-54
2022/06/01 02:00:28;;;;;;;0.40;0.10;;;21.70;37.60;;;;;;4965711;28;20047;-53
2022/06/01 02:03:03;;;;;;;1.95;0.10;;;21.70;37.50;;;;;;4965474;28;20854;-53
2022/06/01 02:08:25;;;;;;;0.10;0.10;;;21.70;37.70;;;;;;4965166;28;20769;-53
2022/06/01 02:13:45;;;;;;;1.45;0.20;;;21.60;37.80;;;;;;4963200;28;20859;-53
2022/06/01 02:16:12;;;;;;;1.08;0.32;;;21.60;38.00;;;;;;4964806;28;20058;-51
2022/06/01 02:18:43;;;;;;;1.55;0.00;;;21.50;38.00;;;;;;4964586;28;20047;-54
2022/06/01 02:21:16;;;;;;;0.10;0.00;;;21.50;38.00;;;;;;4964745;28;20106;-52
2022/06/01 02:23:44;;;;;;;0.73;0.10;;;21.50;38.00;;;;;;4965328;28;20039;-51
2022/06/01 02:26:12;;;;;;;0.65;0.10;;;21.50;38.10;;;;;;4966297;28;20038;-50
2022/06/01 02:28:41;;;;;;;0.30;0.10;;;21.50;38.10;;;;;;4965059;28;20683;-53
2022/06/01 02:31:10;;;;;;;2.28;0.00;;;21.50;38.20;;;;;;4964865;28;20042;-53
2022/06/01 02:33:39;;;;;;;0.13;0.10;;;21.50;38.30;;;;;;4964566;28;20156;-52
2022/06/01 02:36:08;;;;;;;0.63;0.05;;;21.40;38.30;;;;;;4964312;28;20039;-52
2022/06/01 02:38:40;;;;;;;2.70;0.47;;;21.40;38.40;;;;;;4965301;28;20488;-55
2022/06/01 02:42:25;;;;;;;2.47;0.10;;;21.40;38.40;;;;;;4965810;28;20057;-51
2022/06/01 02:43:56;;;;;;;0.30;0.10;;;21.40;38.60;;;;;;4964209;28;20057;-54
2022/06/01 02:46:23;;;;;;;1.10;0.10;;;21.30;38.70;;;;;;4963210;28;20045;-51
2022/06/01 02:48:51;;;;;;;0.13;0.10;;;21.30;38.80;;;;;;4963922;28;20047;-55
2022/06/01 02:51:18;;;;;;;0.40;0.10;;;21.20;38.80;;;;;;4964303;28;20038;-55
2022/06/01 02:53:46;;;;;;;0.60;0.10;;;21.20;39.00;;;;;;4964760;28;20070;-52
2022/06/01 02:56:13;;;;;;;0.10;0.10;;;21.10;39.00;;;;;;4964439;28;20053;-53
2022/06/01 02:58:41;;;;;;;0.47;0.10;;;21.10;39.20;;;;;;4961655;28;20515;-51
2022/06/01 03:01:09;;;;;;;1.15;0.10;;;21.10;39.30;;;;;;4940629;28;20054;-49
2022/06/01 03:03:36;;;;;;;0.52;0.10;;;21.10;39.30;;;;;;4964249;28;20099;-53
2022/06/01 03:06:04;;;;;;;0.45;0.10;;;21.00;39.30;;;;;;4957681;28;20050;-53
2022/06/01 03:08:32;;;;;;;0.75;0.10;;;21.00;39.40;;;;;;4961542;28;20058;-50
2022/06/01 03:10:59;;;;;;;0.32;0.10;;;20.90;39.50;;;;;;4965070;28;20038;-53
2022/06/01 03:13:26;;;;;;;2.85;0.10;;;20.90;39.60;;;;;;4963953;28;20129;-53
2022/06/01 03:15:55;;;;;;;2.20;0.20;;;20.90;39.80;;;;;;4964163;28;20046;-54
2022/06/01 03:18:23;;;;;;;0.20;0.20;;;20.90;39.80;;;;;;4963746;28;20054;-51
2022/06/01 03:20:50;;;;;;;0.10;0.10;;;20.80;39.80;;;;;;4962657;28;20046;-49
2022/06/01 03:23:19;;;;;;;0.57;0.05;;;20.80;39.80;;;;;;4948420;28;20142;-54
2022/06/01 03:25:46;;;;;;;0.17;0.08;;;20.80;39.80;;;;;;4964174;28;20056;-53
2022/06/01 03:28:13;;;;;;;0.75;0.10;;;20.80;39.80;;;;;;4962957;28;20138;-53
2022/06/01 03:30:40;;;;;;;0.10;0.00;;;20.80;40.20;;;;;;4964125;28;20540;-51
2022/06/01 03:33:08;;;;;;;1.40;0.10;;;20.70;39.90;;;;;;4963885;28;20145;-54
2022/06/01 03:35:37;;;;;;;1.48;0.00;;;20.70;40.00;;;;;;4964094;28;20051;-52
2022/06/01 03:38:05;;;;;;;1.23;0.00;;;20.70;40.00;;;;;;4964883;28;20039;-53
2022/06/01 03:40:34;;;;;;;0.10;0.00;;;20.70;40.10;;;;;;4964822;28;20047;-51
2022/06/01 03:43:02;;;;;;;0.60;0.05;;;20.70;40.20;;;;;;4967797;28;20045;-53
2022/06/01 03:48:16;;;;;;;0.43;0.08;;;20.60;40.30;;;;;;4962742;28;20043;-51
2022/06/01 03:50:45;;;;;;;0.10;0.10;;;20.60;40.40;;;;;;4968308;28;20133;-49
2022/06/01 03:53:12;;;;;;;4.15;0.10;;;20.60;40.40;;;;;;4967404;28;20069;-51
2022/06/01 03:55:39;;;;;;;0.60;0.00;;;20.60;40.50;;;;;;4967691;28;20043;-50
2022/06/01 03:58:06;;;;;;;2.42;0.00;;;20.50;40.50;;;;;;4966259;28;20444;-50
2022/06/01 04:00:34;;;;;;;1.90;0.10;;;20.50;40.50;;;;;;4967916;28;20525;-54
2022/06/01 04:03:01;;;;;;;0.10;0.00;;;20.50;40.60;;;;;;4943288;28;20063;-55
2022/06/01 04:05:28;;;;;;;0.43;0.20;;;20.50;40.60;;;;;;4945504;29;20046;-54
2022/06/01 04:07:56;;;;;;;4.85;0.10;;;20.50;40.60;;;;;;4946505;28;20050;-55
2022/06/01 04:10:23;;;;;;;0.32;0.10;;;20.40;40.60;;;;;;4947929;28;20039;-52
2022/06/01 04:12:50;;;;;;;0.20;0.10;;;20.40;40.60;;;;;;4947847;28;20051;-50
2022/06/01 04:15:18;;;;;;;0.35;0.10;;;20.40;40.70;;;;;;4947674;28;20043;-50
2022/06/01 04:17:45;;;;;;;0.20;0.10;;;20.40;40.70;;;;;;4947069;28;20047;-52
2022/06/01 04:20:13;;;;;;;0.45;0.30;;;20.40;40.80;;;;;;4947204;29;20043;-52
2022/06/01 04:22:42;;;;;;;1.58;0.20;;;20.40;40.80;;;;;;4947916;28;20135;-51
2022/06/01 04:25:15;;;;;;;0.22;0.10;;;20.40;40.90;;;;;;4947575;28;20039;-56
2022/06/01 04:27:43;;;;;;;1.80;0.05;;;20.40;40.90;;;;;;4946870;28;20075;-53
2022/06/01 04:30:14;;;;;;;3.35;0.00;;;20.40;40.90;;;;;;4947656;28;20085;-54
2022/06/01 04:32:41;;;;;;;0.10;0.10;;;20.40;40.90;;;;;;4947631;28;20929;-54
2022/06/01 04:35:09;;;;;;;1.42;0.10;;;20.30;40.90;;;;;;4949114;28;20090;-52
2022/06/01 04:37:36;;;;;;;1.00;0.00;;;20.30;41.00;;;;;;4946808;28;20476;-52
2022/06/01 04:40:04;;;;;;;1.05;0.10;;;20.30;41.00;;;;;;4947258;28;20043;-52
2022/06/01 04:42:34;;;;;;;0.65;0.47;;;20.30;41.10;;;;;;4947617;28;20879;-54
2022/06/01 04:45:01;;;;;;;0.75;0.20;;;20.30;41.00;;;;;;4943866;28;20043;-53
2022/06/01 04:47:28;;;;;;;0.20;0.10;;;20.30;41.00;;;;;;4944681;29;20047;-52
2022/06/01 04:49:55;;;;;;;0.90;0.10;;;20.30;41.10;;;;;;4946841;28;20043;-51
2022/06/01 04:52:22;;;;;;;0.22;0.10;;;20.30;41.10;;;;;;4945408;28;20039;-53
2022/06/01 04:54:49;;;;;;;0.17;0.10;;;20.30;41.10;;;;;;4947112;28;20087;-53
2022/06/01 04:57:17;;;;;;;0.20;0.17;;;20.30;41.10;;;;;;4946583;28;20674;-51
2022/06/01 04:59:45;;;;;;;1.55;0.10;;;20.30;41.10;;;;;;4947060;28;20090;-55
2022/06/01 05:02:12;;;;;;;1.20;0.10;;;20.30;41.10;;;;;;4946356;29;20087;-52
2022/06/01 05:04:40;;;;;;;1.95;0.10;;;20.30;41.10;;;;;;4947154;28;20413;-51
2022/06/01 05:07:08;;;;;;;1.38;0.17;;;20.30;41.20;;;;;;4946783;29;20050;-50
2022/06/01 05:09:35;;;;;;;1.25;0.10;;;20.30;41.10;;;;;;4946453;29;20077;-53
2022/06/01 05:12:03;;;;;;;0.32;0.10;;;20.30;41.10;;;;;;4947053;29;20035;-51
2022/06/01 05:14:30;;;;;;;2.50;0.17;;;20.30;41.10;;;;;;4944495;29;20092;-51
2022/06/01 05:17:00;;;;;;;1.10;0.10;;;20.30;41.10;;;;;;4944568;29;20050;-50
2022/06/01 05:19:28;;;;;;;3.50;0.10;;;20.30;41.10;;;;;;4946370;29;20711;-53
2022/06/01 05:21:57;;;;;;;0.75;0.28;;;20.30;41.20;;;;;;4946906;29;20791;-52
2022/06/01 05:24:24;;;;;;;1.67;0.20;;;20.30;41.30;;;;;;4946997;29;20511;-51
2022/06/01 05:26:51;;;;;;;2.80;0.80;;;20.30;41.30;;;;;;4946797;29;20508;-52
2022/06/01 05:29:18;;;;;;;0.30;0.10;;;20.40;41.30;;;;;;4947620;29;20142;-54
2022/06/01 05:31:46;;;;;;;1.60;0.10;;;20.40;41.30;;;;;;4946251;29;20039;-54
2022/06/01 05:34:14;;;;;;;0.45;0.43;;;20.40;41.20;;;;;;4945778;29;20047;-48
2022/06/01 05:36:41;;;;;;;0.45;0.10;;;20.50;41.30;;;;;;4946133;29;20525;-47
2022/06/01 05:39:08;;;;;;;5.55;0.30;;;20.50;41.10;;;;;;4945430;28;20054;-52
2022/06/01 05:41:36;;;;;;;2.72;0.20;;;20.50;41.00;;;;;;4946883;29;20563;-54
2022/06/01 05:44:03;;;;;;;2.17;0.30;;;20.50;41.00;;;;;;4946922;29;20062;-53
2022/06/01 05:46:30;;;;;;;2.47;0.20;;;20.60;41.00;;;;;;4946027;29;20047;-54
2022/06/01 05:48:57;;;;;;;0.80;0.20;;;20.60;40.90;;;;;;4945786;28;20043;-51
2022/06/01 05:51:26;;;;;;;0.88;0.10;;;20.60;40.90;;;;;;4945934;29;20039;-52
2022/06/01 05:53:53;;;;;;;3.55;0.50;;;20.70;40.70;;;;;;4946227;29;20467;-51
2022/06/01 05:56:20;;;;;;;1.13;0.10;;;20.70;40.50;;;;;;4947521;29;20043;-51
2022/06/01 05:58:48;;;;;;;3.05;0.15;;;20.70;40.40;;;;;;4944715;28;20075;-51
2022/06/01 06:01:16;;;;;;;2.13;0.65;;;20.80;40.40;;;;;;4952681;28;20066;-52
2022/06/01 06:03:44;;;;;;;0.52;0.10;;;20.80;40.30;;;;;;4971233;28;20043;-51
2022/06/01 06:06:15;;;;;;;3.63;0.10;;;20.80;40.20;;;;;;4972780;28;20771;-50
2022/06/01 06:08:47;;;;;;;2.70;0.20;;;20.90;40.20;;;;;;4965339;28;20519;-54
2022/06/01 06:11:16;;;;;;;0.93;0.10;;;21.00;40.20;;;;;;4967256;28;20070;-54
2022/06/01 06:13:44;;;;;;;3.30;0.20;;;21.00;39.80;;;;;;4973601;28;20133;-54
2022/06/01 06:16:12;;;;;;;0.68;0.52;;;21.00;39.40;;;;;;4967570;28;20047;-50
2022/06/01 06:18:40;;;;;;;0.20;0.20;;;21.10;39.40;;;;;;4962581;28;20540;-53
2022/06/01 06:21:08;;;;;;;0.77;0.10;;;21.10;39.10;;;;;;4964663;28;20126;-52
2022/06/01 06:23:36;;;;;;;0.65;0.10;;;21.10;38.70;;;;;;4965535;28;20179;-52
2022/06/01 06:26:05;;;;;;;1.40;0.10;;;21.20;38.80;;;;;;4967795;28;20047;-51
2022/06/01 06:28:33;;;;;;;0.73;0.13;;;21.20;39.00;;;;;;4963358;28;20151;-53
2022/06/01 06:31:01;;;;;;;3.38;0.10;;;21.30;38.60;;;;;;4964757;28;20042;-51
2022/06/01 06:33:28;;;;;;;1.00;0.57;;;21.30;38.30;;;;;;4965057;28;20560;-53
2022/06/01 06:35:58;;;;;;;0.10;0.10;;;21.30;38.10;;;;;;4964645;28;20775;-54
2022/06/01 06:38:28;;;;;;;2.20;0.05;;;21.30;37.90;;;;;;4965684;28;20043;-50
2022/06/01 06:40:56;;;;;;;1.10;0.10;;;21.40;37.90;;;;;;4964446;28;20421;-54
2022/06/01 06:43:27;;;;;;;1.77;0.00;;;21.40;37.80;;;;;;4963976;28;20051;-51
2022/06/01 06:45:59;;;;;;;0.00;0.00;;;21.40;38.40;;;;;;4964591;28;20545;-51
2022/06/01 06:48:27;;;;;;;0.98;0.08;;;21.50;37.70;;;;;;4966151;28;20101;-53
2022/06/01 06:50:55;;;;;;;2.03;0.47;;;21.50;37.50;;;;;;4965546;28;20054;-53
2022/06/01 06:53:23;;;;;;;1.25;1.17;;;21.50;37.50;;;;;;4966567;28;20503;-53
2022/06/01 06:55:50;;;;;;;4.70;0.30;;;21.50;37.50;;;;;;4964847;28;20047;-49
2022/06/01 06:58:18;;;;;;;0.57;0.10;;;21.60;37.50;;;;;;4965459;28;20042;-49
2022/06/01 07:00:47;;;;;;;3.25;0.25;;;21.60;37.40;;;;;;4964581;28;20053;-53
2022/06/01 07:03:15;;;;;;;3.55;0.22;;;21.70;37.40;;;;;;4964439;28;20075;-51
2022/06/01 07:08:28;;;;;;;0.30;0.30;;;21.70;37.40;;;;;;4964695;28;20047;-52
2022/06/01 07:10:57;;;;;;;4.72;0.10;;;21.70;37.30;;;;;;4963530;28;20043;-47
2022/06/01 07:13:27;;;;;;;1.27;0.30;;;21.80;37.30;;;;;;4964159;28;20053;-49
2022/06/01 07:16:10;;;;;;;0.95;0.75;;;21.80;37.20;;;;;;4963290;28;20046;-52
2022/06/01 07:18:39;;;;;;;1.42;0.10;;;21.90;37.10;;;;;;4957788;28;20066;-50
2022/06/01 07:21:06;;;;;;;2.15;0.50;;;21.90;37.20;;;;;;4964022;28;20097;-51
2022/06/01 07:23:34;;;;;;;1.42;0.10;;;21.90;37.10;;;;;;4947315;28;20503;-53
2022/06/01 07:26:02;;;;;;;2.95;0.10;;;22.00;37.10;;;;;;4964664;28;20653;-48
2022/06/01 07:28:29;;;;;;;6.13;0.55;;;22.00;36.90;;;;;;4963521;28;20050;-47
2022/06/01 07:30:57;;;;;;;6.35;1.00;;;22.10;37.00;;;;;;4963815;28;20053;-51
2022/06/01 07:33:29;;;;;;;0.30;0.08;;;22.10;37.10;;;;;;4964058;28;20043;-50
2022/06/01 07:35:57;;;;;;;0.65;0.10;;;22.10;36.70;;;;;;4963532;28;20146;-64
2022/06/01 07:43:59;;;;;;;3.40;0.10;;;22.50;37.20;;;;;;4964191;28;20050;-61
2022/06/01 07:46:27;;;;;;;0.08;0.08;;;22.70;37.20;;;;;;4968361;28;20050;-57
2022/06/01 07:48:56;;;;;;;0.28;0.10;;;23.00;36.90;;;;;;4963867;28;20066;-60
2022/06/01 07:51:23;;;;;;;1.40;0.20;;;23.20;36.60;;;;;;4961564;28;20042;-57
2022/06/01 07:53:51;;;;;;;0.60;0.10;;;23.40;36.30;;;;;;4968871;28;20501;-57
2022/06/01 07:56:18;;;;;;;1.88;0.10;;;23.70;36.20;;;;;;4967855;28;20078;-59
2022/06/01 07:58:45;;;;;;;0.95;0.00;;;23.90;35.90;;;;;;4967645;28;20490;-57
2022/06/01 08:01:13;;;;;;;0.93;0.10;;;24.10;35.40;;;;;;4968235;28;20147;-58
2022/06/01 08:03:41;;;;;;;0.32;0.32;;;24.30;35.10;;;;;;4967849;28;20186;-51
2022/06/01 08:06:10;;;;;;;3.03;0.10;;;24.50;34.90;;;;;;4969057;28;20119;-62
2022/06/01 08:08:37;;;;;;;1.10;0.20;;;24.70;34.80;;;;;;4965015;28;20043;-63
2022/06/01 08:11:05;;;;;;;1.38;0.10;;;24.80;34.50;;;;;;4969195;28;20047;-64
2022/06/01 08:13:31;;;;;;;0.82;0.10;;;25.00;34.40;;;;;;4966641;28;20066;-59
2022/06/01 08:16:00;;;;;;;2.65;0.20;;;25.00;34.20;;;;;;4968508;28;20046;-57
2022/06/01 08:18:28;;;;;;;1.17;0.10;;;25.20;34.20;;;;;;4968567;28;20134;-61
2022/06/01 08:20:55;;;;;;;3.80;0.10;;;25.30;34.00;;;;;;4967223;28;20074;-59
2022/06/01 08:23:25;;;;;;;0.63;0.00;;;25.40;33.80;;;;;;4970384;28;20415;-48
2022/06/01 08:25:52;;;;;;;1.45;0.10;;;25.50;33.70;;;;;;4966658;28;20145;-50
2022/06/01 08:28:20;;;;;;;0.20;0.10;;;25.60;33.40;;;;;;4964223;28;20050;-55
2022/06/01 08:30:48;;;;;;;0.17;0.10;;;25.70;33.30;;;;;;4970991;28;20119;-63
2022/06/01 08:33:16;;;;;;;0.10;0.10;;;25.70;33.20;;;;;;4972105;28;20066;-61
2022/06/01 08:35:45;;;;;;;6.43;0.40;;;25.80;33.10;;;;;;4973122;28;20050;-63
2022/06/01 08:38:13;;;;;;;0.55;0.10;;;25.90;33.10;;;;;;4972178;28;20050;-64
2022/06/01 08:40:51;;;;;;;1.45;0.00;;;25.90;32.90;;;;;;4972391;28;20050;-65
2022/06/01 08:43:22;;;;;;;1.23;0.00;;;26.10;32.80;;;;;;4962970;28;20047;-65
2022/06/01 08:45:54;;;;;;;0.25;0.03;;;26.10;32.70;;;;;;4966091;28;20493;-60
2022/06/01 08:48:30;;;;;;;0.17;0.10;;;26.20;32.70;;;;;;4951616;28;20042;-58
2022/06/01 08:50:58;;;;;;;1.60;0.40;;;26.20;32.70;;;;;;4952956;28;20059;-59
2022/06/01 08:53:25;;;;;;;2.08;0.10;;;26.30;32.20;;;;;;4971503;28;20038;-63
2022/06/01 08:55:58;;;;;;;0.20;0.05;;;26.40;31.80;;;;;;4968695;28;20066;-61
2022/06/01 08:58:31;;;;;;;2.53;0.00;;;26.40;31.50;;;;;;4964773;28;20053;-57
2022/06/01 09:01:03;;;;;;;0.45;0.10;;;26.40;31.20;;;;;;4970283;28;20051;-59
2022/06/01 09:03:36;;;;;;;1.85;0.10;;;26.50;30.90;;;;;;4970732;28;20495;-60
2022/06/01 09:06:12;;;;;;;0.55;0.08;;;26.50;30.50;;;;;;4968791;28;20046;-61
2022/06/01 09:08:48;;;;;;;1.20;0.10;;;26.50;30.50;;;;;;4947404;28;20078;-62
2022/06/01 09:11:21;;;;;;;1.15;0.10;;;26.40;30.40;;;;;;4969175;28;20051;-58
2022/06/01 09:13:57;;;;;;;0.60;0.10;;;26.50;30.70;;;;;;4967470;28;20054;-64
2022/06/01 09:16:30;;;;;;;0.57;0.00;;;26.50;30.50;;;;;;4966021;28;20038;-56
2022/06/01 09:18:59;;;;;;;0.45;0.08;;;26.50;30.00;;;;;;4969731;28;20042;-66
2022/06/01 09:24:17;;;;;;;0.10;0.10;;;26.50;30.00;;;;;;4967311;28;20034;-60
2022/06/01 09:26:59;;;;;;;0.63;0.00;;;26.50;30.10;;;;;;4968213;28;20078;-48
2022/06/01 09:29:29;;;;;;;1.55;0.10;;;26.40;30.00;;;;;;4970878;28;20047;-63
2022/06/01 09:31:59;;;;;;;0.80;0.00;;;26.40;30.10;;;;;;4969772;28;20043;-55
2022/06/01 09:34:35;;;;;;;2.13;0.40;;;26.40;30.30;;;;;;4967112;28;20702;-59
2022/06/01 09:37:10;;;;;;;3.33;0.10;;;26.40;30.20;;;;;;4966576;28;20487;-59
2022/06/01 09:39:39;;;;;;;0.10;0.10;;;26.40;30.00;;;;;;4965406;28;20062;-63
2022/06/01 09:42:20;;;;;;;0.10;0.00;;;26.40;30.00;;;;;;4952172;28;20053;-63
2022/06/01 09:44:49;;;;;;;1.65;0.38;;;26.50;30.00;;;;;;4965009;28;20516;-61
2022/06/01 09:47:31;;;;;;;2.20;0.00;;;26.50;30.10;;;;;;4963951;28;20047;-56
2022/06/01 09:50:00;;;;;;;0.45;0.00;;;26.50;30.00;;;;;;4961726;28;20035;-53
2022/06/01 09:52:32;;;;;;;0.95;0.00;;;26.50;30.00;;;;;;4959920;28;20051;-55
2022/06/01 09:55:10;;;;;;;2.60;0.52;;;26.50;30.20;;;;;;4959871;28;20507;-57
2022/06/01 09:57:38;;;;;;;1.35;0.10;;;26.50;30.10;;;;;;4964361;28;20046;-57
2022/06/01 10:06:08;;;;;;;0.22;0.03;;;26.40;30.80;;;;;;4966120;28;20093;-53
2022/06/01 10:08:42;;;;;;;1.98;0.10;;;26.50;30.90;;;;;;4963483;28;20070;-51
2022/06/01 10:11:28;;;;;;;5.68;0.10;;;26.60;30.90;;;;;;4967121;28;20039;-51
2022/06/01 10:14:14;;;;;;;0.30;0.00;;;26.70;31.00;;;;;;4965110;28;20053;-53
2022/06/01 10:16:58;;;;;;;1.02;0.10;;;26.70;30.90;;;;;;4965282;28;20865;-59
2022/06/01 10:19:30;;;;;;;0.30;0.03;;;26.80;30.60;;;;;;4963599;28;20042;-60
2022/06/01 10:22:00;;;;;;;1.13;0.00;;;26.80;30.30;;;;;;4963461;28;20097;-59
2022/06/01 10:24:34;;;;;;;2.40;0.10;;;26.80;30.20;;;;;;4967470;28;20503;-58
2022/06/01 10:27:04;;;;;;;2.38;0.10;;;26.90;30.20;;;;;;4965534;28;20171;-56
2022/06/01 10:29:37;;;;;;;0.20;0.20;;;26.90;30.10;;;;;;4963690;28;20043;-62
2022/06/01 10:32:09;;;;;;;1.13;0.00;;;26.90;29.80;;;;;;4967629;28;20074;-60
2022/06/01 10:34:43;;;;;;;0.17;0.00;;;26.90;29.60;;;;;;4961747;28;20574;-59
2022/06/01 10:37:25;;;;;;;3.17;0.20;;;26.80;29.60;;;;;;4963927;28;20992;-60
2022/06/01 10:39:58;;;;;;;4.68;0.10;;;26.80;29.90;;;;;;4963353;28;20038;-63
2022/06/01 10:45:18;;;;;;;0.60;0.20;;;26.80;30.00;;;;;;4965540;28;20762;-62
2022/06/01 10:47:58;;;;;;;1.17;0.95;;;26.80;29.80;;;;;;4964447;28;20049;-59
2022/06/01 10:50:30;;;;;;;0.25;0.10;;;26.80;29.80;;;;;;4966237;28;20582;-57
2022/06/01 10:53:04;;;;;;;0.15;0.10;;;26.90;29.60;;;;;;4966133;28;20459;-61
2022/06/01 10:55:36;;;;;;;0.52;0.10;;;26.90;29.50;;;;;;4964722;28;20134;-61
2022/06/01 10:58:04;;;;;;;0.00;0.00;;;26.90;29.80;;;;;;4960839;28;20814;-57
2022/06/01 11:00:36;;;;;;;0.17;0.00;;;26.90;30.00;;;;;;4966405;28;20057;-66
2022/06/01 11:03:57;;;;;;;0.17;0.00;;;27.00;29.80;;;;;;4967975;28;20872;-59
2022/06/01 11:06:46;;;;;;;1.80;0.10;;;27.10;29.60;;;;;;4911858;29;20102;-61
2022/06/01 11:09:22;;;;;;;0.43;0.10;;;27.10;30.00;;;;;;4909640;29;20083;-65
2022/06/01 11:11:58;;;;;;;0.20;0.10;;;27.20;29.40;;;;;;4909380;29;20052;-63
2022/06/01 11:14:50;;;;;;;1.02;0.10;;;27.20;29.40;;;;;;4915828;29;20056;-59
2022/06/01 11:17:25;;;;;;;0.10;0.10;;;27.30;29.60;;;;;;4901866;29;20055;-61
2022/06/01 11:20:03;;;;;;;2.05;0.35;;;27.40;29.70;;;;;;4906321;29;20048;-58
2022/06/01 11:22:46;;;;;;;1.20;0.00;;;27.50;29.80;;;;;;4909472;29;20079;-59
2022/06/01 11:25:19;;;;;;;0.47;0.00;;;27.60;29.50;;;;;;4904339;29;20048;-55
2022/06/01 11:28:09;;;;;;;1.85;0.32;;;27.60;29.30;;;;;;4903191;29;20052;-53
2022/06/01 11:30:49;;;;;;;0.95;0.10;;;27.70;29.20;;;;;;4910040;29;20102;-57
2022/06/01 11:33:29;;;;;;;0.30;0.10;;;27.70;28.90;;;;;;4916694;29;20798;-61
2022/06/01 11:36:03;;;;;;;2.05;0.52;;;27.80;28.80;;;;;;4919969;28;20084;-60
2022/06/01 11:38:36;;;;;;;0.73;0.10;;;27.80;28.60;;;;;;4965987;28;20051;-62
2022/06/01 11:41:08;;;;;;;1.40;0.08;;;27.80;28.50;;;;;;4963811;28;20144;-60
2022/06/01 11:43:41;;;;;;;0.10;0.00;;;27.90;28.80;;;;;;4965489;28;20046;-59
2022/06/01 11:46:13;;;;;;;1.75;0.63;;;27.90;28.50;;;;;;4965087;28;20397;-63
2022/06/01 11:48:49;;;;;;;9.40;0.10;;;27.90;28.60;;;;;;4961831;28;20043;-60
2022/06/01 11:51:18;;;;;;;13.55;0.20;;;28.00;28.70;;;;;;4963961;28;20452;-59
2022/06/01 11:54:00;;;;;;;8.25;0.17;;;28.00;28.80;;;;;;4966031;28;20864;-59
2022/06/01 11:56:37;;;;;;;1.05;0.10;;;28.10;28.90;;;;;;4966561;28;20051;-59
2022/06/01 11:59:20;;;;;;;1.98;0.20;;;28.10;29.10;;;;;;4963301;28;20039;-60
2022/06/01 12:01:53;;;;;;;0.47;0.20;;;28.20;28.70;;;;;;4964152;28;20125;-59
2022/06/01 12:04:29;;;;;;;5.05;0.20;;;28.30;28.90;;;;;;4970635;28;20038;-61
2022/06/01 12:07:01;;;;;;;0.57;0.57;;;28.30;28.50;;;;;;4968426;28;20066;-66
2022/06/01 12:09:47;;;;;;;2.35;0.00;;;28.40;28.00;;;;;;4967438;28;20546;-62
2022/06/01 12:12:46;;;;;;;1.20;0.10;;;28.40;27.90;;;;;;4968680;28;20061;-62
2022/06/01 12:15:21;;;;;;;0.05;0.05;;;28.50;28.80;;;;;;4962920;28;20050;-56
2022/06/01 12:18:18;;;;;;;0.30;0.00;;;28.50;28.20;;;;;;4969352;28;20050;-57
2022/06/01 12:20:53;;;;;;;0.28;0.00;;;28.60;28.60;;;;;;4969380;28;20051;-56
2022/06/01 12:29:55;;;;;;;0.40;0.05;;;28.70;28.50;;;;;;4963816;28;20074;-60
2022/06/01 12:32:22;;;;;;;0.10;0.10;;;28.80;28.10;;;;;;4972245;28;20043;-64
2022/06/01 12:35:11;;;;;;;0.50;0.40;;;28.90;27.80;;;;;;4973393;28;20050;-62
2022/06/01 12:37:49;;;;;;;0.10;0.00;;;29.00;27.80;;;;;;4975052;28;20085;-59
2022/06/01 12:40:21;;;;;;;0.40;0.10;;;29.10;27.60;;;;;;4972230;28;20105;-59
2022/06/01 12:42:55;;;;;;;1.58;0.00;;;29.20;27.20;;;;;;4967853;28;20455;-59
2022/06/01 12:45:28;;;;;;;0.08;0.00;;;29.20;27.40;;;;;;4971374;28;20039;-58
2022/06/01 12:48:01;;;;;;;0.65;0.30;;;29.30;27.70;;;;;;4966696;28;20047;-56
2022/06/01 12:50:30;;;;;;;0.28;0.00;;;29.30;27.80;;;;;;4941952;28;20055;-60
2022/06/01 12:53:18;;;;;;;0.40;0.00;;;29.40;27.90;;;;;;4965083;28;20057;-58
2022/06/01 12:55:47;;;;;;;0.00;0.00;;;29.50;28.00;;;;;;4968482;28;20047;-59
2022/06/01 12:58:20;;;;;;;0.10;0.10;;;29.50;27.90;;;;;;4967169;28;20051;-60
2022/06/01 13:00:51;;;;;;;0.52;0.47;;;29.50;27.80;;;;;;4968243;28;20125;-60
2022/06/01 13:03:22;;;;;;;0.15;0.00;;;29.50;27.80;;;;;;4965601;28;20050;-61
2022/06/01 13:05:52;;;;;;;0.03;0.00;;;29.60;28.00;;;;;;4968283;28;20793;-64
2022/06/01 13:08:25;;;;;;;0.17;0.00;;;29.60;28.00;;;;;;4968816;28;20066;-59
2022/06/01 13:10:52;;;;;;;0.45;0.08;;;29.70;28.00;;;;;;4966630;28;20463;-63
2022/06/01 13:13:26;;;;;;;0.50;0.10;;;29.70;27.80;;;;;;4966759;28;20105;-58
2022/06/01 13:15:59;;;;;;;0.40;0.00;;;29.70;28.20;;;;;;4967768;28;20137;-57
2022/06/01 13:18:31;;;;;;;0.10;0.08;;;29.70;28.20;;;;;;4968322;28;20086;-63
2022/06/01 13:21:04;;;;;;;1.15;0.05;;;29.80;28.10;;;;;;4969257;28;20142;-63
2022/06/01 13:23:44;;;;;;;1.60;0.00;;;29.80;28.10;;;;;;4967421;28;20479;-64
2022/06/01 13:26:16;;;;;;;0.20;0.10;;;29.80;28.00;;;;;;4970809;28;20511;-65
2022/06/01 13:28:46;;;;;;;0.90;0.00;;;29.90;27.80;;;;;;4945041;28;20051;-63
2022/06/01 13:31:14;;;;;;;1.00;0.40;;;29.90;28.10;;;;;;4944617;28;20042;-65
2022/06/01 13:33:44;;;;;;;0.10;0.00;;;29.90;28.30;;;;;;4963651;28;20051;-60
2022/06/01 13:36:15;;;;;;;0.85;0.00;;;29.90;28.10;;;;;;4967112;28;20133;-63
2022/06/01 13:38:47;;;;;;;0.28;0.08;;;29.90;28.00;;;;;;4963891;28;20162;-66
2022/06/01 13:41:16;;;;;;;0.10;0.10;;;30.00;28.20;;;;;;4949341;28;20051;-64